KMBL

Manistee Co-Blacker Airport

Manistee, Michigan, USA
KMBL 251727Z 2517/2618 35012G21KT P6SM BKN025 FM252000 35012G21KT P6SM SCT025 FM252300 36008KT P6SM SKC FM260100 01004KT P6SM SKC FM261400 22005KT P6SM FEW200 FM261700 23009KT P6SM SCT200
Issued Valid From Valid To
Apr-25 @ 17:27 UTC
(27 minutes ago)
Apr-25 @ 17:00 UTC
(54 minutes ago)
Apr-26 @ 18:00 UTC
(in 24 hours)
Apr-25 @ 17:00 to Apr-25 @ 20:00
KMBL 251727Z 2517/2618 35012G21KT P6SM BKN025
Wind Visibility Clouds
350° at 12 knots
 Gusting to 21 knots
Greater than 6 miles
  • Broken at 2,500' AGL
From Apr-25 @ 20:00 to Apr-25 @ 23:00
FM252000 35012G21KT P6SM SCT025
Wind Visibility Clouds
350° at 12 knots
 Gusting to 21 knots
Greater than 6 miles
  • Scattered at 2,500' AGL
From Apr-25 @ 23:00 to Apr-26 @ 01:00
FM252300 36008KT P6SM SKC
Wind Visibility Clouds
360° at 8 knots Greater than 6 miles
  • Clear skies
From Apr-26 @ 01:00 to Apr-26 @ 14:00
FM260100 01004KT P6SM SKC
Wind Visibility Clouds
10° at 4 knots Greater than 6 miles
  • Clear skies
From Apr-26 @ 14:00 to Apr-26 @ 17:00
FM261400 22005KT P6SM FEW200
Wind Visibility Clouds
220° at 5 knots Greater than 6 miles
  • Few at 20,000' AGL
From Apr-26 @ 17:00 to Apr-26 @ 18:00
FM261700 23009KT P6SM SCT200
Wind Visibility Clouds
230° at 9 knots Greater than 6 miles
  • Scattered at 20,000' AGL
KMBL 251727Z 2517/2618 35012G21KT P6SM BKN025 FM252000 35012G21KT P6SM SCT025 FM252300 36008KT P6SM SKC FM260100 01004KT P6SM SKC FM261400 22005KT P6SM FEW200 FM261700 23009KT P6SM SCT200
Issued Apr-25 @ 17:27 UTC
(27 minutes ago)
Valid From Apr-25 @ 17:00 UTC
(54 minutes ago)
Valid To Apr-26 @ 18:00 UTC
(in 24 hours)
Apr-25 @ 17:00 - Apr-25 @ 20:00
Wind Visibility
350° at 12 knots
 Gusting to 21 knots
Greater than 6 miles
Clouds
  • Broken at 2,500' AGL
From Apr-25 @ 20:00 - Apr-25 @ 23:00
Wind Visibility
350° at 12 knots
 Gusting to 21 knots
Greater than 6 miles
Clouds
  • Scattered at 2,500' AGL
From Apr-25 @ 23:00 - Apr-26 @ 01:00
Wind Visibility
360° at 8 knots Greater than 6 miles
Clouds
  • Clear skies
From Apr-26 @ 01:00 - Apr-26 @ 14:00
Wind Visibility
10° at 4 knots Greater than 6 miles
Clouds
  • Clear skies
From Apr-26 @ 14:00 - Apr-26 @ 17:00
Wind Visibility
220° at 5 knots Greater than 6 miles
Clouds
  • Few at 20,000' AGL
From Apr-26 @ 17:00 - Apr-26 @ 18:00
Wind Visibility
230° at 9 knots Greater than 6 miles
Clouds
  • Scattered at 20,000' AGL